sensor_id;sensor_type;location;lat;lon;timestamp;P1;durP1;ratioP1;P2;durP2;ratioP2
8183;SDS011;4133;48.752;9.088;2022-11-20T00:01:03;3.73;;;3.43;;
8183;SDS011;4133;48.752;9.088;2022-11-20T00:05:59;4.80;;;3.50;;
8183;SDS011;4133;48.752;9.088;2022-11-20T00:08:26;4.33;;;3.53;;
8183;SDS011;4133;48.752;9.088;2022-11-20T00:10:52;4.67;;;3.90;;
8183;SDS011;4133;48.752;9.088;2022-11-20T00:13:18;5.30;;;3.83;;
8183;SDS011;4133;48.752;9.088;2022-11-20T00:15:44;5.43;;;3.63;;
8183;SDS011;4133;48.752;9.088;2022-11-20T00:18:11;6.33;;;3.87;;
8183;SDS011;4133;48.752;9.088;2022-11-20T00:20:37;4.70;;;3.77;;
8183;SDS011;4133;48.752;9.088;2022-11-20T00:23:03;6.03;;;3.87;;
8183;SDS011;4133;48.752;9.088;2022-11-20T00:25:30;5.07;;;3.33;;
8183;SDS011;4133;48.752;9.088;2022-11-20T00:27:56;4.83;;;3.70;;
8183;SDS011;4133;48.752;9.088;2022-11-20T00:30:22;4.80;;;3.50;;
8183;SDS011;4133;48.752;9.088;2022-11-20T00:32:48;7.43;;;4.17;;
8183;SDS011;4133;48.752;9.088;2022-11-20T00:35:14;4.27;;;3.87;;
8183;SDS011;4133;48.752;9.088;2022-11-20T00:37:40;5.70;;;4.03;;
8183;SDS011;4133;48.752;9.088;2022-11-20T00:40:06;4.87;;;3.93;;
8183;SDS011;4133;48.752;9.088;2022-11-20T00:42:32;5.97;;;3.90;;
8183;SDS011;4133;48.752;9.088;2022-11-20T00:44:58;4.10;;;3.47;;
8183;SDS011;4133;48.752;9.088;2022-11-20T00:47:24;4.70;;;3.63;;
8183;SDS011;4133;48.752;9.088;2022-11-20T00:49:50;3.63;;;3.33;;
8183;SDS011;4133;48.752;9.088;2022-11-20T00:52:16;4.27;;;3.50;;
8183;SDS011;4133;48.752;9.088;2022-11-20T00:54:42;6.77;;;3.83;;
8183;SDS011;4133;48.752;9.088;2022-11-20T00:57:08;4.93;;;3.67;;
8183;SDS011;4133;48.752;9.088;2022-11-20T00:59:34;6.00;;;3.90;;
8183;SDS011;4133;48.752;9.088;2022-11-20T01:02:00;4.83;;;3.50;;
8183;SDS011;4133;48.752;9.088;2022-11-20T01:04:26;6.13;;;3.37;;
8183;SDS011;4133;48.752;9.088;2022-11-20T01:06:52;6.97;;;3.73;;
8183;SDS011;4133;48.752;9.088;2022-11-20T01:09:18;5.40;;;3.50;;
8183;SDS011;4133;48.752;9.088;2022-11-20T01:11:44;5.07;;;3.57;;
8183;SDS011;4133;48.752;9.088;2022-11-20T01:14:14;5.00;;;3.43;;
8183;SDS011;4133;48.752;9.088;2022-11-20T01:16:42;6.87;;;3.37;;
8183;SDS011;4133;48.752;9.088;2022-11-20T01:19:18;6.33;;;3.77;;
8183;SDS011;4133;48.752;9.088;2022-11-20T01:21:45;3.90;;;3.30;;
8183;SDS011;4133;48.752;9.088;2022-11-20T01:24:12;3.73;;;2.97;;
8183;SDS011;4133;48.752;9.088;2022-11-20T01:26:39;3.63;;;3.07;;
8183;SDS011;4133;48.752;9.088;2022-11-20T01:29:13;3.83;;;2.87;;
8183;SDS011;4133;48.752;9.088;2022-11-20T01:31:40;4.00;;;3.20;;
8183;SDS011;4133;48.752;9.088;2022-11-20T01:34:07;3.17;;;2.73;;
8183;SDS011;4133;48.752;9.088;2022-11-20T01:36:33;4.20;;;3.03;;
8183;SDS011;4133;48.752;9.088;2022-11-20T01:39:01;3.60;;;2.93;;
8183;SDS011;4133;48.752;9.088;2022-11-20T01:41:30;3.30;;;2.87;;
8183;SDS011;4133;48.752;9.088;2022-11-20T01:44:16;3.03;;;2.73;;
8183;SDS011;4133;48.752;9.088;2022-11-20T01:47:04;3.87;;;2.73;;
8183;SDS011;4133;48.752;9.088;2022-11-20T01:49:48;5.53;;;3.20;;
8183;SDS011;4133;48.752;9.088;2022-11-20T01:52:27;4.33;;;2.80;;
8183;SDS011;4133;48.752;9.088;2022-11-20T01:54:59;5.40;;;2.60;;
8183;SDS011;4133;48.752;9.088;2022-11-20T01:57:26;5.10;;;2.70;;
8183;SDS011;4133;48.752;9.088;2022-11-20T01:59:57;3.27;;;2.70;;
8183;SDS011;4133;48.752;9.088;2022-11-20T02:04:56;3.87;;;2.87;;
8183;SDS011;4133;48.752;9.088;2022-11-20T02:07:24;3.93;;;3.10;;
8183;SDS011;4133;48.752;9.088;2022-11-20T02:09:50;2.87;;;2.67;;
8183;SDS011;4133;48.752;9.088;2022-11-20T02:12:17;3.40;;;3.10;;
8183;SDS011;4133;48.752;9.088;2022-11-20T02:15:06;3.53;;;2.80;;
8183;SDS011;4133;48.752;9.088;2022-11-20T02:20:02;3.90;;;2.90;;
8183;SDS011;4133;48.752;9.088;2022-11-20T02:22:31;3.70;;;2.80;;
8183;SDS011;4133;48.752;9.088;2022-11-20T02:24:59;3.43;;;2.77;;
8183;SDS011;4133;48.752;9.088;2022-11-20T02:27:26;3.70;;;2.67;;
8183;SDS011;4133;48.752;9.088;2022-11-20T02:29:53;4.47;;;2.73;;
8183;SDS011;4133;48.752;9.088;2022-11-20T02:34:45;3.43;;;3.00;;
8183;SDS011;4133;48.752;9.088;2022-11-20T02:37:11;5.20;;;2.77;;
8183;SDS011;4133;48.752;9.088;2022-11-20T02:39:37;4.20;;;3.07;;
8183;SDS011;4133;48.752;9.088;2022-11-20T02:42:04;2.90;;;2.60;;
8183;SDS011;4133;48.752;9.088;2022-11-20T02:44:30;3.40;;;2.87;;
8183;SDS011;4133;48.752;9.088;2022-11-20T02:46:57;2.60;;;2.40;;
8183;SDS011;4133;48.752;9.088;2022-11-20T02:49:23;4.13;;;2.70;;
8183;SDS011;4133;48.752;9.088;2022-11-20T02:51:49;4.47;;;2.80;;
8183;SDS011;4133;48.752;9.088;2022-11-20T02:54:15;3.57;;;2.80;;
8183;SDS011;4133;48.752;9.088;2022-11-20T02:56:41;6.30;;;2.80;;
8183;SDS011;4133;48.752;9.088;2022-11-20T02:59:08;5.60;;;2.77;;
8183;SDS011;4133;48.752;9.088;2022-11-20T03:01:34;2.77;;;2.30;;
8183;SDS011;4133;48.752;9.088;2022-11-20T03:04:01;4.13;;;2.50;;
8183;SDS011;4133;48.752;9.088;2022-11-20T03:06:27;3.47;;;2.43;;
8183;SDS011;4133;48.752;9.088;2022-11-20T03:08:53;3.33;;;2.77;;
8183;SDS011;4133;48.752;9.088;2022-11-20T03:11:19;3.60;;;2.90;;
8183;SDS011;4133;48.752;9.088;2022-11-20T03:13:45;2.70;;;2.43;;
8183;SDS011;4133;48.752;9.088;2022-11-20T03:16:16;3.33;;;2.70;;
8183;SDS011;4133;48.752;9.088;2022-11-20T03:18:47;3.03;;;2.80;;
8183;SDS011;4133;48.752;9.088;2022-11-20T03:21:14;3.53;;;2.70;;
8183;SDS011;4133;48.752;9.088;2022-11-20T03:23:40;4.33;;;2.60;;
8183;SDS011;4133;48.752;9.088;2022-11-20T03:26:14;3.30;;;2.70;;
8183;SDS011;4133;48.752;9.088;2022-11-20T03:28:40;5.33;;;2.77;;
8183;SDS011;4133;48.752;9.088;2022-11-20T03:31:11;3.50;;;2.63;;
8183;SDS011;4133;48.752;9.088;2022-11-20T03:33:37;3.43;;;2.77;;
8183;SDS011;4133;48.752;9.088;2022-11-20T03:36:04;5.33;;;3.03;;
8183;SDS011;4133;48.752;9.088;2022-11-20T03:38:30;3.33;;;3.03;;
8183;SDS011;4133;48.752;9.088;2022-11-20T03:41:00;3.90;;;3.50;;
8183;SDS011;4133;48.752;9.088;2022-11-20T03:43:27;4.03;;;3.20;;
8183;SDS011;4133;48.752;9.088;2022-11-20T03:45:53;4.83;;;3.90;;
8183;SDS011;4133;48.752;9.088;2022-11-20T03:48:19;4.97;;;3.47;;
8183;SDS011;4133;48.752;9.088;2022-11-20T03:50:45;4.13;;;3.50;;
8183;SDS011;4133;48.752;9.088;2022-11-20T03:53:12;5.37;;;3.67;;
8183;SDS011;4133;48.752;9.088;2022-11-20T03:55:38;4.13;;;3.37;;
8183;SDS011;4133;48.752;9.088;2022-11-20T03:58:04;6.37;;;3.60;;
8183;SDS011;4133;48.752;9.088;2022-11-20T04:00:30;3.63;;;3.33;;
8183;SDS011;4133;48.752;9.088;2022-11-20T04:03:01;3.97;;;3.37;;
8183;SDS011;4133;48.752;9.088;2022-11-20T04:05:27;4.43;;;3.93;;
8183;SDS011;4133;48.752;9.088;2022-11-20T04:07:53;3.93;;;3.53;;
8183;SDS011;4133;48.752;9.088;2022-11-20T04:10:19;4.80;;;3.63;;
8183;SDS011;4133;48.752;9.088;2022-11-20T04:12:45;4.97;;;3.60;;
8183;SDS011;4133;48.752;9.088;2022-11-20T04:15:11;5.37;;;3.60;;
8183;SDS011;4133;48.752;9.088;2022-11-20T04:17:38;4.10;;;3.17;;
8183;SDS011;4133;48.752;9.088;2022-11-20T04:20:05;6.90;;;3.57;;
8183;SDS011;4133;48.752;9.088;2022-11-20T04:22:31;6.47;;;3.70;;
8183;SDS011;4133;48.752;9.088;2022-11-20T04:24:57;4.03;;;3.23;;
8183;SDS011;4133;48.752;9.088;2022-11-20T04:27:23;4.37;;;3.37;;
8183;SDS011;4133;48.752;9.088;2022-11-20T04:29:49;3.57;;;3.23;;
8183;SDS011;4133;48.752;9.088;2022-11-20T04:32:15;5.03;;;3.23;;
8183;SDS011;4133;48.752;9.088;2022-11-20T04:34:41;4.10;;;2.90;;
8183;SDS011;4133;48.752;9.088;2022-11-20T04:37:07;3.13;;;2.60;;
8183;SDS011;4133;48.752;9.088;2022-11-20T04:39:33;3.37;;;2.87;;
8183;SDS011;4133;48.752;9.088;2022-11-20T04:41:59;2.80;;;2.60;;
8183;SDS011;4133;48.752;9.088;2022-11-20T04:44:43;3.00;;;2.70;;
8183;SDS011;4133;48.752;9.088;2022-11-20T04:47:09;3.13;;;2.83;;
8183;SDS011;4133;48.752;9.088;2022-11-20T04:49:35;3.20;;;2.90;;
8183;SDS011;4133;48.752;9.088;2022-11-20T04:52:01;3.10;;;2.80;;
8183;SDS011;4133;48.752;9.088;2022-11-20T04:54:27;2.73;;;2.40;;
8183;SDS011;4133;48.752;9.088;2022-11-20T04:56:53;2.77;;;2.40;;
8183;SDS011;4133;48.752;9.088;2022-11-20T04:59:19;3.77;;;2.40;;
8183;SDS011;4133;48.752;9.088;2022-11-20T05:01:45;5.23;;;2.73;;
8183;SDS011;4133;48.752;9.088;2022-11-20T05:04:11;3.77;;;2.70;;
8183;SDS011;4133;48.752;9.088;2022-11-20T05:06:37;3.07;;;2.70;;
8183;SDS011;4133;48.752;9.088;2022-11-20T05:09:03;3.13;;;2.70;;
8183;SDS011;4133;48.752;9.088;2022-11-20T05:11:29;3.27;;;2.53;;
8183;SDS011;4133;48.752;9.088;2022-11-20T05:13:55;2.83;;;2.57;;
8183;SDS011;4133;48.752;9.088;2022-11-20T05:16:21;3.27;;;2.97;;
8183;SDS011;4133;48.752;9.088;2022-11-20T05:19:01;3.10;;;2.53;;
8183;SDS011;4133;48.752;9.088;2022-11-20T05:21:29;3.33;;;2.57;;
8183;SDS011;4133;48.752;9.088;2022-11-20T05:23:56;3.37;;;2.77;;
8183;SDS011;4133;48.752;9.088;2022-11-20T05:26:22;3.33;;;2.43;;
8183;SDS011;4133;48.752;9.088;2022-11-20T05:28:48;5.77;;;2.57;;
8183;SDS011;4133;48.752;9.088;2022-11-20T05:31:15;4.83;;;2.63;;
8183;SDS011;4133;48.752;9.088;2022-11-20T05:33:42;2.40;;;2.20;;
8183;SDS011;4133;48.752;9.088;2022-11-20T05:36:09;2.90;;;2.30;;
8183;SDS011;4133;48.752;9.088;2022-11-20T05:38:35;3.43;;;2.60;;
8183;SDS011;4133;48.752;9.088;2022-11-20T05:41:08;3.63;;;2.70;;
8183;SDS011;4133;48.752;9.088;2022-11-20T05:43:35;3.70;;;2.70;;
8183;SDS011;4133;48.752;9.088;2022-11-20T05:46:02;3.87;;;2.50;;
8183;SDS011;4133;48.752;9.088;2022-11-20T05:48:29;3.17;;;2.50;;
8183;SDS011;4133;48.752;9.088;2022-11-20T05:50:59;3.37;;;2.40;;
8183;SDS011;4133;48.752;9.088;2022-11-20T05:53:25;3.53;;;2.50;;
8183;SDS011;4133;48.752;9.088;2022-11-20T05:56:08;2.80;;;2.50;;
8183;SDS011;4133;48.752;9.088;2022-11-20T05:58:35;3.43;;;2.40;;
8183;SDS011;4133;48.752;9.088;2022-11-20T06:01:05;4.37;;;2.67;;
8183;SDS011;4133;48.752;9.088;2022-11-20T06:06:05;4.23;;;2.40;;
8183;SDS011;4133;48.752;9.088;2022-11-20T06:08:31;3.27;;;2.33;;
8183;SDS011;4133;48.752;9.088;2022-11-20T06:10:57;3.47;;;2.30;;
8183;SDS011;4133;48.752;9.088;2022-11-20T06:13:24;2.67;;;2.40;;
8183;SDS011;4133;48.752;9.088;2022-11-20T06:15:50;2.37;;;2.17;;
8183;SDS011;4133;48.752;9.088;2022-11-20T06:21:12;2.87;;;2.20;;
8183;SDS011;4133;48.752;9.088;2022-11-20T06:23:39;3.20;;;2.17;;
8183;SDS011;4133;48.752;9.088;2022-11-20T06:26:06;2.70;;;2.20;;
8183;SDS011;4133;48.752;9.088;2022-11-20T06:28:32;3.07;;;2.03;;
8183;SDS011;4133;48.752;9.088;2022-11-20T06:30:58;2.50;;;2.20;;
8183;SDS011;4133;48.752;9.088;2022-11-20T06:33:27;2.73;;;2.07;;
8183;SDS011;4133;48.752;9.088;2022-11-20T06:35:57;2.40;;;2.20;;
8183;SDS011;4133;48.752;9.088;2022-11-20T06:38:23;2.37;;;2.17;;
8183;SDS011;4133;48.752;9.088;2022-11-20T06:40:49;2.37;;;2.10;;
8183;SDS011;4133;48.752;9.088;2022-11-20T06:43:15;3.00;;;2.00;;
8183;SDS011;4133;48.752;9.088;2022-11-20T06:45:41;2.47;;;2.03;;
8183;SDS011;4133;48.752;9.088;2022-11-20T06:48:07;2.37;;;2.17;;
8183;SDS011;4133;48.752;9.088;2022-11-20T06:50:34;2.20;;;2.00;;
8183;SDS011;4133;48.752;9.088;2022-11-20T06:53:01;2.20;;;2.00;;
8183;SDS011;4133;48.752;9.088;2022-11-20T06:55:28;3.10;;;2.20;;
8183;SDS011;4133;48.752;9.088;2022-11-20T06:57:54;2.23;;;1.97;;
8183;SDS011;4133;48.752;9.088;2022-11-20T07:00:20;3.03;;;2.50;;
8183;SDS011;4133;48.752;9.088;2022-11-20T07:02:47;2.67;;;2.17;;
8183;SDS011;4133;48.752;9.088;2022-11-20T07:05:13;2.80;;;2.30;;
8183;SDS011;4133;48.752;9.088;2022-11-20T07:07:39;3.80;;;3.22;;
8183;SDS011;4133;48.752;9.088;2022-11-20T07:10:05;2.40;;;2.20;;
8183;SDS011;4133;48.752;9.088;2022-11-20T07:12:31;6.77;;;3.93;;
8183;SDS011;4133;48.752;9.088;2022-11-20T07:14:57;16.53;;;9.33;;
8183;SDS011;4133;48.752;9.088;2022-11-20T07:17:23;8.13;;;5.70;;
8183;SDS011;4133;48.752;9.088;2022-11-20T07:19:49;8.03;;;5.43;;
8183;SDS011;4133;48.752;9.088;2022-11-20T07:22:15;6.80;;;4.00;;
8183;SDS011;4133;48.752;9.088;2022-11-20T07:24:41;3.07;;;2.57;;
8183;SDS011;4133;48.752;9.088;2022-11-20T07:27:07;2.50;;;2.30;;
8183;SDS011;4133;48.752;9.088;2022-11-20T07:29:33;3.57;;;1.97;;
8183;SDS011;4133;48.752;9.088;2022-11-20T07:31:59;1.90;;;1.80;;
8183;SDS011;4133;48.752;9.088;2022-11-20T07:34:25;2.10;;;1.83;;
8183;SDS011;4133;48.752;9.088;2022-11-20T07:36:51;4.63;;;1.77;;
8183;SDS011;4133;48.752;9.088;2022-11-20T07:39:17;2.50;;;1.70;;
8183;SDS011;4133;48.752;9.088;2022-11-20T07:41:43;2.67;;;2.03;;
8183;SDS011;4133;48.752;9.088;2022-11-20T07:44:09;2.70;;;1.97;;
8183;SDS011;4133;48.752;9.088;2022-11-20T07:46:35;1.87;;;1.67;;
8183;SDS011;4133;48.752;9.088;2022-11-20T07:49:01;2.63;;;1.87;;
8183;SDS011;4133;48.752;9.088;2022-11-20T07:51:27;2.37;;;1.90;;
8183;SDS011;4133;48.752;9.088;2022-11-20T07:53:54;3.20;;;1.90;;
8183;SDS011;4133;48.752;9.088;2022-11-20T07:56:20;2.20;;;2.00;;
8183;SDS011;4133;48.752;9.088;2022-11-20T07:58:46;2.83;;;1.80;;
8183;SDS011;4133;48.752;9.088;2022-11-20T08:01:12;3.47;;;1.80;;
8183;SDS011;4133;48.752;9.088;2022-11-20T08:03:45;1.87;;;1.60;;
8183;SDS011;4133;48.752;9.088;2022-11-20T08:06:11;2.33;;;1.80;;
8183;SDS011;4133;48.752;9.088;2022-11-20T08:08:37;1.80;;;1.70;;
8183;SDS011;4133;48.752;9.088;2022-11-20T08:11:04;3.60;;;2.37;;
8183;SDS011;4133;48.752;9.088;2022-11-20T08:13:49;2.00;;;1.80;;
8183;SDS011;4133;48.752;9.088;2022-11-20T08:16:34;3.80;;;1.97;;
8183;SDS011;4133;48.752;9.088;2022-11-20T08:21:50;2.03;;;1.70;;
8183;SDS011;4133;48.752;9.088;2022-11-20T08:24:16;2.20;;;2.00;;
8183;SDS011;4133;48.752;9.088;2022-11-20T08:26:42;2.13;;;1.93;;
8183;SDS011;4133;48.752;9.088;2022-11-20T08:29:08;1.83;;;1.70;;
8183;SDS011;4133;48.752;9.088;2022-11-20T08:31:34;2.10;;;1.90;;
8183;SDS011;4133;48.752;9.088;2022-11-20T08:34:00;2.13;;;1.77;;
8183;SDS011;4133;48.752;9.088;2022-11-20T08:36:26;2.67;;;1.67;;
8183;SDS011;4133;48.752;9.088;2022-11-20T08:38:54;1.40;;;1.30;;
8183;SDS011;4133;48.752;9.088;2022-11-20T08:41:20;1.70;;;1.53;;
8183;SDS011;4133;48.752;9.088;2022-11-20T08:43:51;1.27;;;1.17;;
8183;SDS011;4133;48.752;9.088;2022-11-20T08:46:17;3.40;;;1.43;;
8183;SDS011;4133;48.752;9.088;2022-11-20T08:48:43;1.33;;;1.20;;
8183;SDS011;4133;48.752;9.088;2022-11-20T08:51:10;2.07;;;1.40;;
8183;SDS011;4133;48.752;9.088;2022-11-20T08:53:36;1.60;;;1.30;;
8183;SDS011;4133;48.752;9.088;2022-11-20T08:56:02;1.50;;;1.30;;
8183;SDS011;4133;48.752;9.088;2022-11-20T08:58:28;1.40;;;1.30;;
8183;SDS011;4133;48.752;9.088;2022-11-20T09:00:54;1.80;;;1.20;;
8183;SDS011;4133;48.752;9.088;2022-11-20T09:03:20;1.37;;;1.27;;
8183;SDS011;4133;48.752;9.088;2022-11-20T09:05:46;1.30;;;1.20;;
8183;SDS011;4133;48.752;9.088;2022-11-20T09:08:12;1.80;;;1.20;;
8183;SDS011;4133;48.752;9.088;2022-11-20T09:10:38;1.30;;;1.20;;
8183;SDS011;4133;48.752;9.088;2022-11-20T09:13:07;1.50;;;1.40;;
8183;SDS011;4133;48.752;9.088;2022-11-20T09:15:33;2.60;;;1.50;;
8183;SDS011;4133;48.752;9.088;2022-11-20T09:18:08;1.20;;;1.10;;
8183;SDS011;4133;48.752;9.088;2022-11-20T09:20:34;0.90;;;0.90;;
8183;SDS011;4133;48.752;9.088;2022-11-20T09:23:00;1.10;;;1.00;;
8183;SDS011;4133;48.752;9.088;2022-11-20T09:25:26;1.00;;;1.00;;
8183;SDS011;4133;48.752;9.088;2022-11-20T09:27:56;0.70;;;0.70;;
8183;SDS011;4133;48.752;9.088;2022-11-20T09:30:22;0.73;;;0.73;;
8183;SDS011;4133;48.752;9.088;2022-11-20T09:32:48;0.70;;;0.70;;
8183;SDS011;4133;48.752;9.088;2022-11-20T09:35:14;1.00;;;0.70;;
8183;SDS011;4133;48.752;9.088;2022-11-20T09:37:40;0.70;;;0.70;;
8183;SDS011;4133;48.752;9.088;2022-11-20T09:40:06;0.90;;;0.90;;
8183;SDS011;4133;48.752;9.088;2022-11-20T09:42:39;0.90;;;0.90;;
8183;SDS011;4133;48.752;9.088;2022-11-20T09:47:55;1.27;;;1.10;;
8183;SDS011;4133;48.752;9.088;2022-11-20T09:52:59;0.93;;;0.80;;
8183;SDS011;4133;48.752;9.088;2022-11-20T09:55:30;0.80;;;0.80;;
8183;SDS011;4133;48.752;9.088;2022-11-20T09:57:56;0.90;;;0.90;;
8183;SDS011;4133;48.752;9.088;2022-11-20T10:00:23;0.73;;;0.73;;
8183;SDS011;4133;48.752;9.088;2022-11-20T10:03:03;2.30;;;1.60;;
8183;SDS011;4133;48.752;9.088;2022-11-20T10:05:45;1.00;;;1.00;;
8183;SDS011;4133;48.752;9.088;2022-11-20T10:11:00;0.60;;;0.60;;
8183;SDS011;4133;48.752;9.088;2022-11-20T10:21:49;0.90;;;0.83;;
8183;SDS011;4133;48.752;9.088;2022-11-20T10:24:24;1.00;;;0.90;;
8183;SDS011;4133;48.752;9.088;2022-11-20T10:29:29;0.90;;;0.90;;
8183;SDS011;4133;48.752;9.088;2022-11-20T10:32:02;0.83;;;0.83;;
8183;SDS011;4133;48.752;9.088;2022-11-20T10:34:33;0.93;;;0.93;;
8183;SDS011;4133;48.752;9.088;2022-11-20T10:37:01;1.00;;;1.00;;
8183;SDS011;4133;48.752;9.088;2022-11-20T10:42:14;1.67;;;1.00;;
8183;SDS011;4133;48.752;9.088;2022-11-20T10:44:42;1.20;;;1.10;;
8183;SDS011;4133;48.752;9.088;2022-11-20T10:47:30;1.40;;;1.30;;
8183;SDS011;4133;48.752;9.088;2022-11-20T10:49:57;1.23;;;1.13;;
8183;SDS011;4133;48.752;9.088;2022-11-20T10:55:39;1.50;;;1.40;;
8183;SDS011;4133;48.752;9.088;2022-11-20T11:00:38;1.57;;;1.20;;
8183;SDS011;4133;48.752;9.088;2022-11-20T11:03:23;1.57;;;1.30;;
8183;SDS011;4133;48.752;9.088;2022-11-20T11:05:50;1.57;;;1.20;;
8183;SDS011;4133;48.752;9.088;2022-11-20T11:08:19;1.87;;;1.20;;
8183;SDS011;4133;48.752;9.088;2022-11-20T11:10:53;2.17;;;1.30;;
8183;SDS011;4133;48.752;9.088;2022-11-20T11:13:24;2.00;;;1.30;;
8183;SDS011;4133;48.752;9.088;2022-11-20T11:15:51;1.23;;;1.00;;
8183;SDS011;4133;48.752;9.088;2022-11-20T11:21:21;1.40;;;1.10;;
8183;SDS011;4133;48.752;9.088;2022-11-20T11:23:48;1.73;;;1.20;;
8183;SDS011;4133;48.752;9.088;2022-11-20T11:26:23;1.30;;;1.20;;
8183;SDS011;4133;48.752;9.088;2022-11-20T11:28:56;1.37;;;1.03;;
8183;SDS011;4133;48.752;9.088;2022-11-20T11:31:24;2.40;;;1.40;;
8183;SDS011;4133;48.752;9.088;2022-11-20T11:34:12;1.80;;;1.13;;
8183;SDS011;4133;48.752;9.088;2022-11-20T11:36:37;3.80;;;1.30;;
8183;SDS011;4133;48.752;9.088;2022-11-20T11:39:03;1.93;;;1.40;;
8183;SDS011;4133;48.752;9.088;2022-11-20T11:41:31;2.63;;;1.43;;
8183;SDS011;4133;48.752;9.088;2022-11-20T11:44:17;2.47;;;1.30;;
8183;SDS011;4133;48.752;9.088;2022-11-20T11:47:02;1.73;;;1.30;;
8183;SDS011;4133;48.752;9.088;2022-11-20T11:49:29;1.27;;;1.10;;
8183;SDS011;4133;48.752;9.088;2022-11-20T12:00:05;1.47;;;1.10;;
8183;SDS011;4133;48.752;9.088;2022-11-20T12:07:42;2.50;;;1.27;;
8183;SDS011;4133;48.752;9.088;2022-11-20T12:10:52;2.13;;;1.37;;
8183;SDS011;4133;48.752;9.088;2022-11-20T12:15:44;1.90;;;1.17;;
8183;SDS011;4133;48.752;9.088;2022-11-20T12:21:19;1.50;;;1.00;;
8183;SDS011;4133;48.752;9.088;2022-11-20T12:29:06;2.53;;;1.40;;
8183;SDS011;4133;48.752;9.088;2022-11-20T12:32:14;2.23;;;1.00;;
8183;SDS011;4133;48.752;9.088;2022-11-20T12:39:53;1.53;;;1.10;;
8183;SDS011;4133;48.752;9.088;2022-11-20T12:42:26;1.97;;;0.90;;
8183;SDS011;4133;48.752;9.088;2022-11-20T12:50:17;0.70;;;0.70;;
8183;SDS011;4133;48.752;9.088;2022-11-20T12:52:47;0.90;;;0.70;;
8183;SDS011;4133;48.752;9.088;2022-11-20T13:00:53;1.43;;;0.80;;
8183;SDS011;4133;48.752;9.088;2022-11-20T13:08:35;0.80;;;0.80;;
8183;SDS011;4133;48.752;9.088;2022-11-20T13:22:11;0.83;;;0.77;;
8183;SDS011;4133;48.752;9.088;2022-11-20T13:24:37;2.23;;;0.70;;
8183;SDS011;4133;48.752;9.088;2022-11-20T13:29:40;3.00;;;0.90;;
8183;SDS011;4133;48.752;9.088;2022-11-20T13:34:39;1.00;;;0.73;;
8183;SDS011;4133;48.752;9.088;2022-11-20T13:37:05;2.10;;;0.90;;
8183;SDS011;4133;48.752;9.088;2022-11-20T13:39:35;2.00;;;0.80;;
8183;SDS011;4133;48.752;9.088;2022-11-20T13:42:25;0.93;;;0.90;;
8183;SDS011;4133;48.752;9.088;2022-11-20T13:44:53;1.40;;;1.00;;
8183;SDS011;4133;48.752;9.088;2022-11-20T13:47:23;1.93;;;0.70;;
8183;SDS011;4133;48.752;9.088;2022-11-20T13:49:49;1.03;;;0.70;;
8183;SDS011;4133;48.752;9.088;2022-11-20T13:52:30;1.40;;;0.80;;
8183;SDS011;4133;48.752;9.088;2022-11-20T14:02:35;1.23;;;1.07;;
8183;SDS011;4133;48.752;9.088;2022-11-20T14:05:01;2.43;;;0.90;;
8183;SDS011;4133;48.752;9.088;2022-11-20T14:07:31;1.20;;;1.10;;
8183;SDS011;4133;48.752;9.088;2022-11-20T14:09:58;1.83;;;1.20;;
8183;SDS011;4133;48.752;9.088;2022-11-20T14:12:28;2.63;;;1.10;;
8183;SDS011;4133;48.752;9.088;2022-11-20T14:14:54;3.50;;;1.00;;
8183;SDS011;4133;48.752;9.088;2022-11-20T14:20:25;1.20;;;1.00;;
8183;SDS011;4133;48.752;9.088;2022-11-20T14:22:52;3.77;;;2.00;;
8183;SDS011;4133;48.752;9.088;2022-11-20T14:25:20;2.10;;;1.40;;
8183;SDS011;4133;48.752;9.088;2022-11-20T14:27:53;1.97;;;1.17;;
8183;SDS011;4133;48.752;9.088;2022-11-20T14:30:26;0.93;;;0.80;;
8183;SDS011;4133;48.752;9.088;2022-11-20T14:32:53;2.10;;;0.97;;
8183;SDS011;4133;48.752;9.088;2022-11-20T14:35:27;1.27;;;0.90;;
8183;SDS011;4133;48.752;9.088;2022-11-20T14:37:53;1.67;;;0.90;;
8183;SDS011;4133;48.752;9.088;2022-11-20T14:42:49;1.87;;;1.00;;
8183;SDS011;4133;48.752;9.088;2022-11-20T14:45:15;1.17;;;1.00;;
8183;SDS011;4133;48.752;9.088;2022-11-20T14:47:41;2.27;;;1.10;;
8183;SDS011;4133;48.752;9.088;2022-11-20T14:50:19;1.27;;;1.03;;
8183;SDS011;4133;48.752;9.088;2022-11-20T14:52:50;5.47;;;1.10;;
8183;SDS011;4133;48.752;9.088;2022-11-20T14:55:24;1.93;;;0.90;;
8183;SDS011;4133;48.752;9.088;2022-11-20T14:57:54;2.47;;;0.90;;
8183;SDS011;4133;48.752;9.088;2022-11-20T15:00:21;1.00;;;0.90;;
8183;SDS011;4133;48.752;9.088;2022-11-20T15:02:48;1.57;;;1.30;;
8183;SDS011;4133;48.752;9.088;2022-11-20T15:05:15;1.53;;;0.97;;
8183;SDS011;4133;48.752;9.088;2022-11-20T15:07:43;2.07;;;1.20;;
8183;SDS011;4133;48.752;9.088;2022-11-20T15:10:20;3.03;;;1.10;;
8183;SDS011;4133;48.752;9.088;2022-11-20T15:12:48;3.40;;;1.50;;
8183;SDS011;4133;48.752;9.088;2022-11-20T15:15:15;1.17;;;1.03;;
8183;SDS011;4133;48.752;9.088;2022-11-20T15:20:46;1.33;;;1.07;;
8183;SDS011;4133;48.752;9.088;2022-11-20T15:23:14;0.90;;;0.90;;
8183;SDS011;4133;48.752;9.088;2022-11-20T15:25:40;3.60;;;1.07;;
8183;SDS011;4133;48.752;9.088;2022-11-20T15:28:29;2.87;;;1.10;;
8183;SDS011;4133;48.752;9.088;2022-11-20T15:30:53;1.97;;;1.27;;
8183;SDS011;4133;48.752;9.088;2022-11-20T15:33:20;1.50;;;1.07;;
8183;SDS011;4133;48.752;9.088;2022-11-20T15:35:46;1.93;;;1.20;;
8183;SDS011;4133;48.752;9.088;2022-11-20T15:38:12;1.97;;;1.13;;
8183;SDS011;4133;48.752;9.088;2022-11-20T15:40:38;2.13;;;0.90;;
8183;SDS011;4133;48.752;9.088;2022-11-20T15:43:04;1.80;;;1.10;;
8183;SDS011;4133;48.752;9.088;2022-11-20T15:45:38;1.80;;;1.30;;
8183;SDS011;4133;48.752;9.088;2022-11-20T15:48:08;1.60;;;1.17;;
8183;SDS011;4133;48.752;9.088;2022-11-20T15:50:38;2.13;;;1.10;;
8183;SDS011;4133;48.752;9.088;2022-11-20T15:53:04;2.40;;;1.00;;
8183;SDS011;4133;48.752;9.088;2022-11-20T15:55:30;1.60;;;1.00;;
8183;SDS011;4133;48.752;9.088;2022-11-20T15:57:57;1.83;;;1.13;;
8183;SDS011;4133;48.752;9.088;2022-11-20T16:00:23;1.23;;;1.00;;
8183;SDS011;4133;48.752;9.088;2022-11-20T16:02:49;1.10;;;1.00;;
8183;SDS011;4133;48.752;9.088;2022-11-20T16:05:15;2.23;;;1.40;;
8183;SDS011;4133;48.752;9.088;2022-11-20T16:07:42;2.53;;;1.23;;
8183;SDS011;4133;48.752;9.088;2022-11-20T16:10:08;1.70;;;1.20;;
8183;SDS011;4133;48.752;9.088;2022-11-20T16:12:34;1.17;;;1.10;;
8183;SDS011;4133;48.752;9.088;2022-11-20T16:15:19;1.60;;;1.10;;
8183;SDS011;4133;48.752;9.088;2022-11-20T16:18:03;1.10;;;1.10;;
8183;SDS011;4133;48.752;9.088;2022-11-20T16:20:29;1.60;;;1.50;;
8183;SDS011;4133;48.752;9.088;2022-11-20T16:22:55;3.07;;;1.30;;
8183;SDS011;4133;48.752;9.088;2022-11-20T16:25:21;2.13;;;1.30;;
8183;SDS011;4133;48.752;9.088;2022-11-20T16:30:51;1.70;;;1.40;;
8183;SDS011;4133;48.752;9.088;2022-11-20T16:33:17;1.60;;;1.10;;
8183;SDS011;4133;48.752;9.088;2022-11-20T16:35:43;1.50;;;1.00;;
8183;SDS011;4133;48.752;9.088;2022-11-20T16:38:09;1.57;;;1.40;;
8183;SDS011;4133;48.752;9.088;2022-11-20T16:40:35;1.20;;;1.03;;
8183;SDS011;4133;48.752;9.088;2022-11-20T16:43:06;2.90;;;1.30;;
8183;SDS011;4133;48.752;9.088;2022-11-20T16:45:32;0.90;;;0.90;;
8183;SDS011;4133;48.752;9.088;2022-11-20T16:47:58;1.10;;;0.93;;
8183;SDS011;4133;48.752;9.088;2022-11-20T16:50:35;2.03;;;1.40;;
8183;SDS011;4133;48.752;9.088;2022-11-20T16:53:01;1.27;;;1.17;;
8183;SDS011;4133;48.752;9.088;2022-11-20T16:55:27;2.70;;;1.40;;
8183;SDS011;4133;48.752;9.088;2022-11-20T16:57:53;3.17;;;1.27;;
8183;SDS011;4133;48.752;9.088;2022-11-20T17:00:19;2.70;;;1.60;;
8183;SDS011;4133;48.752;9.088;2022-11-20T17:02:45;2.37;;;1.33;;
8183;SDS011;4133;48.752;9.088;2022-11-20T17:05:11;1.93;;;1.20;;
8183;SDS011;4133;48.752;9.088;2022-11-20T17:07:37;3.30;;;1.60;;
8183;SDS011;4133;48.752;9.088;2022-11-20T17:10:03;1.57;;;1.47;;
8183;SDS011;4133;48.752;9.088;2022-11-20T17:12:29;1.40;;;1.30;;
8183;SDS011;4133;48.752;9.088;2022-11-20T17:14:55;2.72;;;1.60;;
8183;SDS011;4133;48.752;9.088;2022-11-20T17:17:21;1.83;;;1.50;;
8183;SDS011;4133;48.752;9.088;2022-11-20T17:19:47;2.13;;;1.40;;
8183;SDS011;4133;48.752;9.088;2022-11-20T17:22:13;1.57;;;1.37;;
8183;SDS011;4133;48.752;9.088;2022-11-20T17:24:39;1.30;;;1.20;;
8183;SDS011;4133;48.752;9.088;2022-11-20T17:30:09;2.17;;;1.40;;
8183;SDS011;4133;48.752;9.088;2022-11-20T17:32:35;2.23;;;1.70;;
8183;SDS011;4133;48.752;9.088;2022-11-20T17:35:02;3.77;;;1.53;;